Idledale, Colorado
Current Conditions -  °F | °C
As of 12:55 PM on Thursday 29 Jan 2015 (Local Time) from KBJC Reporting Station
Broken Clouds Broken Clouds  
Wind Chill: 38°   Ceiling: 12000
Heat Index: 43°   Visibility: 40mi
Dew Point: 25°   Wind: 8mph
Humidity: 49%   Direction: 116°ESE
Pressure: 30.45"   Gusts: NA
Location:  39.67°N, 105.25°W
Report Text: KBJC 291955Z 116007KT 40SM SCT080 BKN120 06/M04 A3045
Loading
Personal Weather Stations






























Interactive Weather Map New forecast layout! Learn more

10-Day Weather Forecast

Advertisements
Track Severe Weather on mobile